Terminal Aerodrome Forecast
Issued by NWS Charleston, WV

Home | Current Version | Previous Version | Text Only | Print | Product List | Glossary On
Versions: 1 2 3 4 5 6 7 8 9 10 11 12 13 14 15 16 17 18 19 20 21 22 23 24 25
422
FTUS41 KRLX 251456 AAD
TAFEKN
TAF AMD
KEKN 251456Z 2515/2612 00000KT P6SM SCT050
     FM260000 07003KT P6SM FEW250
     FM260500 11004KT 1 1/2SM BR SCT001
     FM260600 11003KT 1/2SM FG VV001=

USA.gov is the U.S. government's official web portal to all federal, state and local government web resources and services.